Time;durP1;ratioP1;P1;durP2;ratioP2;P2;SDS_P1;SDS_P2;PMS_P1;PMS_P2;Temp;Humidity;BMP_temperature;BMP_pressure;BME280_temperature;BME280_humidity;BME280_pressure;Samples;Min_cycle;Max_cycle;Signal;HPM_P1;HPM_P2
2021/09/30 00:01:24;;;;;;;9.63;6.22;;;;;;;31.74;25.24;98716.03;5089534;28;20060;-84
2021/09/30 00:03:50;;;;;;;9.63;5.70;;;;;;;32.16;24.84;98724.00;5090539;28;20032;-84
2021/09/30 00:06:19;;;;;;;8.55;5.25;;;;;;;32.41;24.36;98715.13;5086923;28;20514;-85
2021/09/30 00:08:46;;;;;;;12.13;8.27;;;;;;;31.80;25.32;98710.53;5086502;28;20039;-84
2021/09/30 00:11:17;;;;;;;9.20;6.57;;;;;;;31.79;25.37;98704.06;5091233;28;20495;-85
2021/09/30 00:13:48;;;;;;;11.82;9.02;;;;;;;31.53;25.82;98711.25;5091101;28;20031;-85
2021/09/30 00:40:17;;;;;;;7.97;5.15;;;;;;;31.98;25.25;98721.91;5090846;28;20042;-87
2021/09/30 00:45:40;;;;;;;8.65;5.93;;;;;;;32.04;25.29;98726.50;5089546;28;20046;-86
2021/09/30 00:48:24;;;;;;;8.80;5.65;;;;;;;31.97;25.14;98721.13;5090822;28;20031;-87
2021/09/30 00:53:45;;;;;;;7.70;5.00;;;;;;;32.30;24.97;98717.66;5091786;28;20040;-86
2021/09/30 01:58:09;;;;;;;7.88;5.53;;;;;;;32.01;25.71;98761.56;5093338;28;20081;-85
2021/09/30 02:20:34;;;;;;;5.28;4.07;;;;;;;32.40;25.32;98776.06;5093481;28;20521;-87
2021/09/30 02:26:06;;;;;;;6.47;4.72;;;;;;;32.30;25.44;98775.28;5089847;28;20055;-87
2021/09/30 02:29:10;;;;;;;8.32;5.07;;;;;;;32.33;25.41;98776.38;5089693;28;20058;-87
2021/09/30 02:34:34;;;;;;;7.25;5.20;;;;;;;32.40;25.78;98776.06;5084176;28;20060;-87
2021/09/30 02:59:12;;;;;;;6.38;4.28;;;;;;;32.18;25.95;98789.66;5091637;28;20097;-85
2021/09/30 03:01:43;;;;;;;6.78;4.97;;;;;;;32.36;25.47;98792.50;5091883;28;20048;-85
2021/09/30 03:04:11;;;;;;;5.03;4.15;;;;;;;32.52;25.53;98795.03;5093810;28;20020;-85
2021/09/30 03:06:39;;;;;;;4.40;4.00;;;;;;;32.57;25.42;98803.75;5071186;28;20443;-85
2021/09/30 03:09:06;;;;;;;6.30;5.28;;;;;;;32.54;25.62;98804.69;5088358;28;20032;-85
2021/09/30 03:11:37;;;;;;;6.03;4.80;;;;;;;32.46;25.46;98799.78;5090039;28;20024;-85
2021/09/30 03:14:05;;;;;;;6.07;3.65;;;;;;;32.43;25.58;98804.34;5076337;28;20507;-85
2021/09/30 03:16:45;;;;;;;5.80;4.05;;;;;;;32.33;25.62;98794.22;5079614;28;20081;-85
2021/09/30 03:19:38;;;;;;;5.77;4.10;;;;;;;32.64;25.18;98794.09;5088818;28;20450;-85
2021/09/30 03:24:44;;;;;;;4.72;3.75;;;;;;;32.83;25.12;98795.66;5092946;28;20044;-85
2021/09/30 03:27:11;;;;;;;5.45;3.92;;;;;;;32.98;24.74;98796.53;5089747;28;20120;-85
2021/09/30 03:29:38;;;;;;;5.07;3.72;;;;;;;33.04;24.93;98799.56;5092793;28;20094;-86
2021/09/30 03:32:05;;;;;;;5.20;4.07;;;;;;;33.06;24.96;98803.53;5090215;28;20067;-86
2021/09/30 03:34:33;;;;;;;4.47;3.67;;;;;;;33.11;24.87;98807.78;5090067;28;20020;-86
2021/09/30 03:37:01;;;;;;;4.78;3.78;;;;;;;33.15;24.71;98806.34;5091368;28;20047;-86
2021/09/30 03:39:27;;;;;;;4.75;4.25;;;;;;;33.03;24.97;98800.81;5092492;28;20039;-86
2021/09/30 03:41:53;;;;;;;5.65;4.05;;;;;;;32.98;24.79;98798.63;5093068;28;20032;-86
2021/09/30 03:44:20;;;;;;;6.30;4.53;;;;;;;32.86;24.93;98797.50;5093060;28;20028;-86
2021/09/30 03:46:52;;;;;;;6.68;5.70;;;;;;;32.41;25.65;98801.19;5093524;28;20040;-86
2021/09/30 03:49:33;;;;;;;4.72;4.18;;;;;;;31.92;26.36;98812.66;5092172;28;20028;-86
2021/09/30 03:59:24;;;;;;;5.63;3.97;;;;;;;32.77;25.19;98822.38;5092545;28;20119;-86
2021/09/30 04:01:56;;;;;;;3.92;3.50;;;;;;;32.82;24.78;98822.50;5089266;28;20035;-85
2021/09/30 04:04:25;;;;;;;4.45;3.45;;;;;;;32.69;25.35;98828.38;5084895;28;20032;-85
2021/09/30 04:06:52;;;;;;;5.85;3.63;;;;;;;32.67;25.43;98833.72;5075461;28;20136;-85
2021/09/30 04:09:19;;;;;;;4.00;3.13;;;;;;;32.74;25.30;98827.72;5086206;28;20474;-85
2021/09/30 04:11:45;;;;;;;5.00;3.60;;;;;;;32.90;25.19;98840.84;5088065;28;20028;-85
2021/09/30 04:14:11;;;;;;;3.95;3.55;;;;;;;32.79;24.91;98840.53;5071885;28;20035;-85
2021/09/30 04:16:38;;;;;;;4.82;3.85;;;;;;;32.51;25.68;98838.97;5089861;28;20028;-85
2021/09/30 04:19:04;;;;;;;4.47;3.50;;;;;;;32.13;26.41;98836.53;5088170;28;20036;-85
2021/09/30 04:21:31;;;;;;;4.30;3.47;;;;;;;31.76;26.62;98837.69;5090757;28;20062;-85
2021/09/30 04:23:57;;;;;;;4.13;3.22;;;;;;;31.49;27.27;98832.69;5086463;28;20595;-85
2021/09/30 04:26:23;;;;;;;2.92;2.63;;;;;;;31.61;27.27;98842.38;5087427;28;20039;-86
2021/09/30 04:28:49;;;;;;;4.90;3.10;;;;;;;31.62;27.29;98841.13;5089800;28;20024;-86
2021/09/30 04:31:16;;;;;;;4.47;3.90;;;;;;;31.47;27.57;98837.25;5089522;28;20040;-86
2021/09/30 04:33:42;;;;;;;4.07;2.88;;;;;;;31.51;27.42;98850.06;5087669;28;20468;-86
2021/09/30 04:36:08;;;;;;;3.42;2.78;;;;;;;31.65;27.11;98848.72;5076318;28;20407;-86
2021/09/30 04:38:34;;;;;;;3.90;2.78;;;;;;;31.91;26.69;98853.66;5089682;28;20090;-86
2021/09/30 04:41:00;;;;;;;3.03;2.60;;;;;;;32.26;25.98;98853.44;5090649;28;20028;-85
2021/09/30 04:43:26;;;;;;;3.00;2.70;;;;;;;32.42;25.88;98865.31;5088577;28;20111;-87
2021/09/30 04:45:52;;;;;;;3.08;2.75;;;;;;;32.54;25.48;98863.59;5071361;28;20032;-85
2021/09/30 04:48:18;;;;;;;3.17;2.85;;;;;;;32.60;25.44;98861.72;5089998;28;20039;-85
2021/09/30 04:50:44;;;;;;;3.33;2.83;;;;;;;32.41;26.19;98860.91;5093488;28;20028;-85
2021/09/30 04:53:10;;;;;;;2.22;2.03;;;;;;;32.47;26.29;98866.72;5094131;28;20039;-85
2021/09/30 04:55:36;;;;;;;2.55;2.25;;;;;;;32.64;25.56;98865.19;5093846;28;20044;-85
2021/09/30 04:58:02;;;;;;;3.08;2.42;;;;;;;32.80;25.26;98869.75;5094469;28;20036;-87
2021/09/30 05:00:29;;;;;;;4.10;2.60;;;;;;;32.91;25.02;98873.69;5093064;28;20028;-87
2021/09/30 05:02:55;;;;;;;3.40;2.42;;;;;;;33.00;24.69;98879.38;5093185;28;20036;-86
2021/09/30 05:05:21;;;;;;;4.13;3.00;;;;;;;32.97;24.88;98879.53;5099632;28;20035;-87
2021/09/30 05:07:47;;;;;;;3.75;2.97;;;;;;;32.63;25.19;98874.97;5094365;28;20035;-89
2021/09/30 05:10:18;;;;;;;4.28;3.30;;;;;;;32.40;25.75;98879.19;5094206;28;20107;-87
2021/09/30 05:12:44;;;;;;;3.47;2.72;;;;;;;32.20;26.14;98883.75;5088927;28;20116;-84
2021/09/30 05:15:10;;;;;;;3.85;3.03;;;;;;;32.04;26.44;98893.38;5093167;28;20032;-86
2021/09/30 05:17:36;;;;;;;2.78;2.53;;;;;;;32.18;26.21;98891.97;5093397;28;20397;-86
2021/09/30 05:20:03;;;;;;;3.28;2.65;;;;;;;32.26;26.32;98893.22;5093083;28;20446;-88
2021/09/30 05:22:29;;;;;;;2.75;2.30;;;;;;;32.50;26.10;98892.19;5093827;28;20050;-85
2021/09/30 05:24:56;;;;;;;2.95;2.42;;;;;;;32.70;25.76;98903.91;5091780;28;20059;-87
2021/09/30 05:27:22;;;;;;;2.45;2.22;;;;;;;32.90;25.50;98906.28;5092930;28;20107;-85
2021/09/30 05:29:48;;;;;;;4.88;3.83;;;;;;;32.68;25.69;98909.28;5094219;28;20392;-87
2021/09/30 05:32:14;;;;;;;4.00;3.17;;;;;;;32.57;25.82;98914.66;5074326;28;20403;-86
2021/09/30 05:34:42;;;;;;;6.53;4.57;;;;;;;32.37;26.29;98913.47;5075542;28;20368;-86
2021/09/30 05:37:09;;;;;;;3.47;3.17;;;;;;;32.04;26.75;98918.94;5076842;28;20044;-87
2021/09/30 05:39:35;;;;;;;4.88;3.90;;;;;;;32.02;26.63;98925.06;5095412;28;20048;-87
2021/09/30 05:42:01;;;;;;;6.80;4.20;;;;;;;31.76;27.35;98934.25;5095299;28;20043;-87
2021/09/30 05:44:29;;;;;;;5.88;4.80;;;;;;;31.29;27.91;98934.44;5095459;28;20032;-87
2021/09/30 05:46:55;;;;;;;6.15;4.53;;;;;;;31.38;27.98;98931.66;5092929;28;20137;-86
2021/09/30 05:49:23;;;;;;;9.38;6.63;;;;;;;31.15;27.94;98943.47;5095299;28;20024;-86
2021/09/30 05:51:49;;;;;;;11.20;7.95;;;;;;;30.69;29.06;98940.25;5094430;28;20039;-87
2021/09/30 05:54:15;;;;;;;10.15;6.07;;;;;;;30.89;28.67;98947.69;5095162;28;20043;-87
2021/09/30 05:56:42;;;;;;;11.52;7.78;;;;;;;30.73;28.85;98945.78;5095092;28;20040;-87
2021/09/30 05:59:09;;;;;;;11.23;7.85;;;;;;;30.75;29.02;98944.09;5087874;28;20035;-87
2021/09/30 06:12:04;;;;;;;16.60;9.07;;;;;;;30.02;30.01;98964.38;5089731;28;20468;-86
2021/09/30 06:14:32;;;;;;;15.70;11.85;;;;;;;29.72;30.38;98974.19;5093689;28;20024;-87
2021/09/30 06:16:59;;;;;;;13.70;9.77;;;;;;;29.81;30.43;98979.19;5076559;28;20090;-87
2021/09/30 06:19:25;;;;;;;16.52;12.15;;;;;;;29.54;30.17;98982.44;5095270;28;20032;-87
2021/09/30 06:21:52;;;;;;;16.83;12.18;;;;;;;29.89;29.83;98981.38;5094148;28;20081;-87
2021/09/30 06:24:23;;;;;;;16.73;11.43;;;;;;;29.65;30.34;98988.56;5094011;28;20169;-86
2021/09/30 06:26:50;;;;;;;17.77;12.18;;;;;;;29.29;30.97;98993.69;5077142;28;20044;-85
2021/09/30 06:29:16;;;;;;;17.42;12.13;;;;;;;28.44;32.20;98995.94;5093910;28;20032;-87
2021/09/30 06:31:42;;;;;;;18.33;13.63;;;;;;;28.50;31.74;98988.50;5094424;28;20498;-86
2021/09/30 06:34:09;;;;;;;21.38;14.18;;;;;;;28.26;32.23;98995.59;5093324;28;20455;-85
2021/09/30 06:36:35;;;;;;;23.17;14.38;;;;;;;27.44;33.05;98995.00;5085261;28;20036;-84
2021/09/30 06:39:02;;;;;;;20.52;13.23;;;;;;;27.13;33.81;99017.75;5093009;28;20506;-84
2021/09/30 06:41:28;;;;;;;23.90;16.08;;;;;;;26.77;34.35;99008.38;5094105;28;20111;-85
2021/09/30 06:43:54;;;;;;;23.27;16.15;;;;;;;27.43;33.74;99025.25;5087761;28;20491;-84
2021/09/30 06:46:22;;;;;;;22.50;15.07;;;;;;;27.57;33.06;99029.78;5089211;28;20522;-86
2021/09/30 06:48:48;;;;;;;22.10;15.13;;;;;;;27.09;33.16;99033.16;5083096;28;20073;-87
2021/09/30 06:51:14;;;;;;;23.80;16.13;;;;;;;27.48;33.04;99033.19;5093391;28;20039;-88
2021/09/30 06:53:40;;;;;;;24.33;16.15;;;;;;;26.67;33.77;99038.31;5063178;28;20033;-86
2021/09/30 06:56:13;;;;;;;24.42;15.63;;;;;;;26.25;34.53;99039.03;5094543;28;20518;-85
2021/09/30 06:58:45;;;;;;;25.45;15.90;;;;;;;27.01;33.37;99048.59;5094034;28;20098;-85
2021/09/30 07:01:14;;;;;;;32.78;20.85;;;;;;;26.67;33.98;99038.31;5092253;28;20035;-85
2021/09/30 07:03:40;;;;;;;21.60;14.50;;;;;;;26.82;33.58;99052.97;5093779;28;20028;-85
2021/09/30 07:06:06;;;;;;;26.23;15.48;;;;;;;27.41;32.39;99053.09;5080571;28;20040;-85
2021/09/30 07:08:32;;;;;;;19.67;13.38;;;;;;;27.93;31.45;99045.53;5092948;28;20483;-85
2021/09/30 07:10:58;;;;;;;21.80;13.88;;;;;;;27.97;31.71;99060.34;5093381;28;20048;-84
2021/09/30 07:13:25;;;;;;;25.85;15.55;;;;;;;28.15;31.18;99062.00;5094172;28;20097;-84
2021/09/30 07:15:52;;;;;;;21.85;13.88;;;;;;;28.48;30.60;99069.28;5093985;28;20040;-85
2021/09/30 07:18:19;;;;;;;21.98;14.48;;;;;;;27.91;31.41;99064.13;5093289;28;20024;-85
2021/09/30 07:20:53;;;;;;;17.38;11.60;;;;;;;28.64;30.20;99067.28;5091545;28;20431;-83
2021/09/30 07:23:20;;;;;;;19.00;12.00;;;;;;;28.92;29.93;99073.44;5075298;28;20032;-83
2021/09/30 07:25:46;;;;;;;17.83;12.20;;;;;;;29.09;29.45;99073.00;5103620;28;20032;-83
2021/09/30 07:28:12;;;;;;;16.85;10.65;;;;;;;29.48;28.86;99071.16;5093721;28;20043;-83
2021/09/30 07:30:38;;;;;;;16.63;11.15;;;;;;;29.59;28.68;99083.78;5094094;28;20080;-85
2021/09/30 07:33:05;;;;;;;16.55;10.90;;;;;;;29.17;29.13;99071.56;5093081;28;20032;-85
2021/09/30 07:35:32;;;;;;;13.48;9.50;;;;;;;29.28;29.07;99082.63;5093423;28;20039;-83
2021/09/30 07:37:58;;;;;;;15.43;10.80;;;;;;;29.07;29.21;99088.81;5092021;28;20096;-86
2021/09/30 07:40:25;;;;;;;14.18;9.10;;;;;;;28.87;29.50;99093.81;5093628;28;20036;-85
2021/09/30 07:42:53;;;;;;;15.38;10.77;;;;;;;28.88;29.32;99090.53;5093484;28;20036;-85
2021/09/30 07:45:20;;;;;;;18.05;11.40;;;;;;;28.57;29.58;99100.53;5092693;28;20035;-85
2021/09/30 07:47:46;;;;;;;16.40;8.68;;;;;;;29.11;29.09;99095.97;5091238;28;20387;-84
2021/09/30 07:50:12;;;;;;;12.98;8.93;;;;;;;29.14;28.68;99095.09;5093440;28;20390;-84
2021/09/30 07:52:38;;;;;;;12.60;7.72;;;;;;;29.26;28.46;99096.41;5093648;28;20040;-83
2021/09/30 07:55:06;;;;;;;13.77;9.63;;;;;;;28.76;29.14;99102.53;5088603;28;20037;-84
2021/09/30 07:57:32;;;;;;;14.43;9.43;;;;;;;28.91;28.85;99108.63;5073123;28;20040;-83
2021/09/30 07:59:59;;;;;;;16.30;8.07;;;;;;;28.96;28.87;99116.59;5071450;28;20064;-83
2021/09/30 08:02:25;;;;;;;13.35;9.07;;;;;;;28.45;29.57;99118.97;5053725;28;20029;-83
2021/09/30 08:04:51;;;;;;;13.68;8.88;;;;;;;28.47;29.61;99130.63;5053344;28;20032;-84
2021/09/30 08:07:17;;;;;;;12.63;8.15;;;;;;;28.46;29.43;99122.63;5068995;28;20051;-84
2021/09/30 08:09:43;;;;;;;10.52;6.82;;;;;;;29.00;28.86;99134.25;5072887;28;20468;-84
2021/09/30 08:12:10;;;;;;;14.93;9.30;;;;;;;29.05;28.82;99136.53;5072683;28;20150;-83
2021/09/30 08:14:36;;;;;;;12.77;8.75;;;;;;;28.99;28.39;99130.63;5073383;28;20025;-84
2021/09/30 08:17:03;;;;;;;12.50;9.15;;;;;;;29.09;28.52;99140.88;5072235;28;20029;-83
2021/09/30 08:19:30;;;;;;;13.32;8.45;;;;;;;28.72;28.89;99139.38;5072885;28;20116;-84
2021/09/30 08:21:56;;;;;;;9.75;6.93;;;;;;;29.32;28.18;99132.22;5072198;28;20037;-84
2021/09/30 08:24:23;;;;;;;10.90;7.30;;;;;;;29.99;27.48;99133.16;5072603;28;20400;-84
2021/09/30 08:26:49;;;;;;;8.43;6.50;;;;;;;30.26;26.79;99135.59;5073325;28;20408;-84
2021/09/30 08:29:18;;;;;;;14.10;7.82;;;;;;;29.96;27.22;99138.94;5072464;28;20435;-84
2021/09/30 08:31:55;;;;;;;10.68;6.97;;;;;;;30.13;27.30;99151.78;5072534;28;20058;-85
2021/09/30 08:34:21;;;;;;;10.60;7.13;;;;;;;29.58;27.83;99149.31;5066871;28;20036;-85
2021/09/30 08:36:47;;;;;;;12.25;7.43;;;;;;;29.43;28.39;99154.53;5068477;28;20037;-85
2021/09/30 08:39:13;;;;;;;11.18;7.05;;;;;;;29.91;27.94;99154.47;5054400;28;20507;-85
2021/09/30 08:41:40;;;;;;;15.43;7.82;;;;;;;29.91;27.46;99162.16;5083543;28;20028;-85
2021/09/30 08:44:07;;;;;;;11.90;7.47;;;;;;;29.88;27.99;99157.38;5072308;28;20093;-85
2021/09/30 08:46:34;;;;;;;14.38;8.60;;;;;;;29.34;28.05;99157.22;5072884;28;20498;-85
2021/09/30 08:49:02;;;;;;;11.75;6.95;;;;;;;29.47;28.51;99157.28;5063639;28;20056;-84
2021/09/30 08:51:28;;;;;;;11.02;7.13;;;;;;;29.05;28.78;99156.34;5072359;28;20025;-85
2021/09/30 08:53:55;;;;;;;10.93;7.32;;;;;;;29.47;28.38;99171.44;5071386;28;20036;-84
2021/09/30 08:56:21;;;;;;;11.63;7.47;;;;;;;28.94;28.44;99167.91;5087771;28;20563;-84
2021/09/30 08:58:47;;;;;;;15.35;7.72;;;;;;;28.80;28.94;99173.13;5088247;28;20036;-84
2021/09/30 09:01:14;;;;;;;20.30;11.18;;;;;;;28.40;29.04;99173.19;5077644;28;20043;-84
2021/09/30 09:03:43;;;;;;;10.20;8.20;;;;;;;28.60;28.86;99173.97;5090030;28;20118;-85
2021/09/30 09:06:26;;;;;;;12.63;7.18;;;;;;;28.38;29.36;99181.31;5091526;28;20064;-85
2021/09/30 09:09:35;;;;;;;9.25;5.82;;;;;;;29.25;28.69;99182.50;5085519;28;20502;-85
2021/09/30 09:12:06;;;;;;;11.55;6.75;;;;;;;29.10;28.37;99184.88;5031189;28;20037;-85
2021/09/30 09:14:35;;;;;;;10.82;7.50;;;;;;;28.55;28.87;99194.25;5029595;28;20517;-85
2021/09/30 09:17:05;;;;;;;14.07;6.40;;;;;;;28.29;29.41;99195.22;5071559;28;20072;-85
2021/09/30 09:19:37;;;;;;;8.55;5.57;;;;;;;28.45;28.81;99191.69;5092427;28;20036;-85
2021/09/30 09:22:10;;;;;;;11.32;6.13;;;;;;;28.44;28.86;99202.16;5092461;28;20036;-86
2021/09/30 09:24:53;;;;;;;9.98;6.10;;;;;;;28.59;28.44;99197.03;5098925;28;20085;-85
2021/09/30 09:27:20;;;;;;;8.27;5.45;;;;;;;28.64;28.62;99200.13;5112956;28;20046;-85
2021/09/30 09:29:46;;;;;;;10.93;6.28;;;;;;;28.40;28.68;99200.66;5113003;28;20031;-85
2021/09/30 09:32:12;;;;;;;7.72;5.15;;;;;;;28.73;28.45;99199.50;5088621;28;20032;-85
2021/09/30 09:34:39;;;;;;;7.18;4.40;;;;;;;28.60;28.35;99192.97;5088681;28;20028;-85
2021/09/30 09:37:38;;;;;;;6.30;4.40;;;;;;;28.05;29.31;99208.63;5093262;28;20040;-85
2021/09/30 09:40:17;;;;;;;7.97;4.88;;;;;;;28.67;28.29;99204.91;5062874;28;20044;-84
2021/09/30 09:42:45;;;;;;;7.40;4.80;;;;;;;28.51;28.41;99202.00;5094671;28;20085;-84
2021/09/30 09:45:13;;;;;;;7.53;4.70;;;;;;;28.18;28.42;99205.16;5090839;28;20540;-84
2021/09/30 09:47:41;;;;;;;8.35;4.43;;;;;;;27.88;28.77;99214.59;5092757;28;20036;-84
2021/09/30 09:50:24;;;;;;;7.53;4.20;;;;;;;27.91;28.63;99208.88;5094011;28;20372;-84
2021/09/30 09:52:54;;;;;;;7.95;4.38;;;;;;;27.49;29.46;99217.38;5093913;28;20495;-84
2021/09/30 09:55:26;;;;;;;8.32;4.60;;;;;;;27.38;29.41;99221.16;5095091;28;20044;-85
2021/09/30 09:58:11;;;;;;;5.13;3.67;;;;;;;27.07;30.21;99219.63;5093551;28;20028;-85
2021/09/30 10:00:58;;;;;;;6.03;4.32;;;;;;;27.83;29.38;99227.19;5093552;28;20059;-86
2021/09/30 10:03:33;;;;;;;9.13;3.80;;;;;;;27.92;28.16;99240.72;5094345;28;20024;-85
2021/09/30 10:06:04;;;;;;;10.25;4.90;;;;;;;28.15;28.20;99231.44;5092987;28;20390;-85
2021/09/30 10:08:32;;;;;;;8.57;4.75;;;;;;;27.34;28.92;99234.50;5093963;28;20410;-85
2021/09/30 10:10:59;;;;;;;7.05;3.58;;;;;;;27.50;28.96;99239.50;5094608;28;20032;-85
2021/09/30 10:13:27;;;;;;;7.00;4.70;;;;;;;27.65;28.58;99232.38;5092028;28;20039;-85
2021/09/30 10:15:56;;;;;;;7.30;4.20;;;;;;;28.00;28.61;99243.03;5094292;28;20062;-84
2021/09/30 10:18:25;;;;;;;9.02;4.03;;;;;;;27.99;28.19;99241.44;5093035;28;20032;-85
2021/09/30 10:20:52;;;;;;;5.43;3.08;;;;;;;28.62;27.58;99247.81;5093976;28;20032;-85
2021/09/30 10:23:25;;;;;;;5.45;3.40;;;;;;;29.21;26.39;99244.84;5098113;28;20027;-86
2021/09/30 10:26:08;;;;;;;5.75;3.50;;;;;;;29.31;26.33;99240.19;5077010;28;20028;-85
2021/09/30 10:28:44;;;;;;;7.20;3.67;;;;;;;29.50;26.06;99244.16;5099445;28;20165;-87
2021/09/30 10:31:35;;;;;;;4.65;3.03;;;;;;;29.71;25.64;99237.94;5103967;28;20036;-89
2021/09/30 10:34:05;;;;;;;3.95;2.78;;;;;;;29.34;25.78;99237.25;5088031;28;20032;-89
2021/09/30 10:36:40;;;;;;;3.95;2.53;;;;;;;29.73;25.46;99236.25;5106758;28;20119;-88
2021/09/30 10:39:18;;;;;;;4.82;2.90;;;;;;;29.77;25.71;99236.16;5094635;28;20020;-89
2021/09/30 10:41:45;;;;;;;3.38;2.10;;;;;;;30.25;25.47;99238.84;5076733;28;20039;-89
2021/09/30 10:44:20;;;;;;;3.35;2.17;;;;;;;30.48;24.85;99237.81;5093764;28;20077;-89
2021/09/30 10:46:48;;;;;;;3.40;1.95;;;;;;;30.66;24.25;99241.72;5094637;28;20085;-89
2021/09/30 10:49:28;;;;;;;3.83;1.95;;;;;;;30.75;24.46;99241.84;5089937;28;20036;-87
2021/09/30 10:52:16;;;;;;;3.65;2.83;;;;;;;30.06;24.72;99239.78;5060573;28;20112;-87
2021/09/30 10:55:06;;;;;;;3.08;2.00;;;;;;;30.20;24.69;99241.44;5094335;28;20115;-87
2021/09/30 10:57:33;;;;;;;3.45;1.88;;;;;;;30.11;24.94;99242.09;5094063;28;20426;-87
2021/09/30 10:59:59;;;;;;;2.03;1.80;;;;;;;30.52;24.84;99244.16;5094461;28;20031;-86
2021/09/30 11:02:25;;;;;;;5.20;1.58;;;;;;;30.76;23.94;99240.56;5103720;28;20542;-87
2021/09/30 11:05:01;;;;;;;3.78;2.60;;;;;;;30.64;24.46;99235.66;5108885;28;20442;-86
2021/09/30 11:07:27;;;;;;;2.97;2.10;;;;;;;30.39;24.08;99240.50;5093461;28;20036;-88
2021/09/30 11:10:17;;;;;;;3.35;2.15;;;;;;;30.49;24.75;99240.19;5092306;28;20028;-89
2021/09/30 11:13:18;;;;;;;2.72;1.83;;;;;;;30.63;24.20;99238.97;5072356;28;20032;-88
2021/09/30 11:16:00;;;;;;;4.22;2.53;;;;;;;29.81;25.16;99239.69;5088639;28;20106;-88
2021/09/30 11:18:53;;;;;;;4.28;2.03;;;;;;;29.24;25.62;99248.84;5093941;28;20035;-88
2021/09/30 11:21:31;;;;;;;4.40;2.30;;;;;;;28.91;26.06;99238.69;5094390;28;20093;-87
2021/09/30 11:23:58;;;;;;;3.63;2.17;;;;;;;29.34;25.55;99247.75;5093807;28;20036;-87
2021/09/30 11:26:25;;;;;;;4.63;2.28;;;;;;;28.62;25.90;99247.81;5093945;28;20032;-87
2021/09/30 11:28:53;;;;;;;6.03;1.80;;;;;;;29.38;26.20;99248.50;5094092;28;20101;-87
2021/09/30 11:31:31;;;;;;;4.28;2.03;;;;;;;29.34;25.63;99248.56;5093266;28;20085;-87
2021/09/30 11:34:01;;;;;;;4.20;1.65;;;;;;;29.56;25.07;99243.16;5078367;28;20029;-87
2021/09/30 11:36:38;;;;;;;2.08;1.50;;;;;;;29.55;25.31;99240.75;5075790;28;20025;-87
2021/09/30 11:39:05;;;;;;;2.63;1.33;;;;;;;30.21;25.06;99243.81;5093693;28;20032;-87
2021/09/30 11:41:36;;;;;;;2.55;1.40;;;;;;;30.70;24.42;99250.09;5093989;28;20024;-87
2021/09/30 11:44:03;;;;;;;1.58;1.20;;;;;;;31.05;23.77;99245.38;5093626;28;20036;-87
2021/09/30 11:46:35;;;;;;;2.38;1.00;;;;;;;31.19;23.81;99245.72;5058305;28;20043;-87
2021/09/30 11:49:07;;;;;;;2.22;1.50;;;;;;;31.14;23.82;99245.47;5092816;28;20475;-87
2021/09/30 11:51:39;;;;;;;3.20;1.20;;;;;;;31.15;23.73;99249.91;5093258;28;20031;-87
2021/09/30 11:54:08;;;;;;;4.30;1.55;;;;;;;30.76;23.69;99242.59;5075707;28;20040;-87
2021/09/30 11:56:55;;;;;;;1.48;1.00;;;;;;;30.77;24.32;99250.69;5092428;28;20125;-86
2021/09/30 11:59:24;;;;;;;2.85;1.42;;;;;;;30.91;24.05;99254.34;5093177;28;20111;-86
2021/09/30 12:01:53;;;;;;;2.58;1.50;;;;;;;30.66;24.36;99253.06;5089091;28;20058;-87
2021/09/30 12:04:36;;;;;;;2.67;2.03;;;;;;;30.49;24.55;99254.38;5085255;28;20111;-87
2021/09/30 12:07:03;;;;;;;3.42;1.10;;;;;;;30.60;24.20;99251.19;5073265;28;20060;-86
2021/09/30 12:09:33;;;;;;;1.25;0.90;;;;;;;30.93;24.05;99249.81;5091151;28;20039;-86
2021/09/30 12:12:03;;;;;;;4.00;1.38;;;;;;;31.31;23.64;99253.44;5091924;28;20042;-86
2021/09/30 12:14:49;;;;;;;2.42;1.17;;;;;;;31.28;22.78;99254.34;5091735;28;20383;-86
2021/09/30 12:17:17;;;;;;;1.65;1.23;;;;;;;31.34;23.34;99252.50;5091243;28;20035;-86
2021/09/30 12:19:51;;;;;;;2.05;1.10;;;;;;;31.53;23.02;99252.75;5113035;28;20543;-86
2021/09/30 12:22:25;;;;;;;1.23;1.00;;;;;;;31.77;23.62;99256.75;5096060;28;20036;-86
2021/09/30 12:24:59;;;;;;;1.92;1.25;;;;;;;32.01;23.14;99255.94;5093356;28;20028;-86
2021/09/30 12:27:30;;;;;;;1.25;1.02;;;;;;;32.07;23.12;99259.75;5093355;28;20032;-86
2021/09/30 12:30:02;;;;;;;1.20;1.10;;;;;;;31.89;22.93;99258.78;5093300;28;20036;-86
2021/09/30 12:32:35;;;;;;;2.35;1.20;;;;;;;31.86;23.35;99262.53;5073353;28;20360;-87
2021/09/30 12:35:04;;;;;;;4.18;1.23;;;;;;;32.10;22.97;99260.88;5091869;28;20118;-86
2021/09/30 12:37:39;;;;;;;3.58;1.30;;;;;;;32.25;22.57;99252.63;5092577;28;20059;-86
2021/09/30 12:40:07;;;;;;;1.63;1.00;;;;;;;32.50;23.17;99261.06;5092154;28;20395;-86
2021/09/30 12:42:35;;;;;;;1.98;1.13;;;;;;;32.70;22.91;99262.28;5093183;28;20024;-86
2021/09/30 12:45:01;;;;;;;1.73;1.10;;;;;;;32.63;22.75;99258.91;5093140;28;20032;-86
2021/09/30 12:47:38;;;;;;;3.53;1.30;;;;;;;32.75;22.72;99267.38;5091678;28;20085;-87
2021/09/30 12:50:13;;;;;;;2.85;1.42;;;;;;;32.41;22.59;99255.28;5075123;28;20032;-85
2021/09/30 12:52:40;;;;;;;5.30;1.40;;;;;;;32.40;22.88;99253.69;5090076;28;20089;-85
2021/09/30 12:55:15;;;;;;;1.40;1.15;;;;;;;32.61;22.87;99258.59;5074633;28;20036;-84
2021/09/30 12:57:41;;;;;;;2.40;1.13;;;;;;;32.78;21.66;99253.47;5091300;28;20058;-83
2021/09/30 13:00:18;;;;;;;2.42;1.10;;;;;;;32.92;21.70;99248.03;5091846;28;20107;-85
2021/09/30 13:02:48;;;;;;;1.00;0.90;;;;;;;32.85;22.50;99244.66;5089879;28;20067;-86
2021/09/30 13:05:16;;;;;;;1.55;0.85;;;;;;;32.75;22.20;99255.19;5072529;28;20119;-86
2021/09/30 13:08:03;;;;;;;1.25;0.90;;;;;;;32.88;21.91;99249.44;5091741;28;20028;-84
2021/09/30 13:10:33;;;;;;;1.65;0.80;;;;;;;32.89;22.68;99248.94;5081569;28;20534;-84
2021/09/30 13:13:06;;;;;;;1.60;0.80;;;;;;;32.99;22.47;99256.28;5100878;28;20647;-84
2021/09/30 13:15:35;;;;;;;1.70;0.73;;;;;;;33.01;22.29;99255.81;5088645;28;20036;-85
2021/09/30 13:18:02;;;;;;;1.60;0.70;;;;;;;32.85;22.30;99248.31;5095711;28;20451;-84
2021/09/30 13:20:30;;;;;;;0.80;0.80;;;;;;;32.87;23.09;99245.78;5095565;28;20460;-86
2021/09/30 13:22:56;;;;;;;1.42;1.05;;;;;;;32.84;22.31;99248.78;5093278;28;20107;-87
2021/09/30 13:25:23;;;;;;;0.80;0.73;;;;;;;32.35;22.53;99245.78;5079161;28;20422;-86
2021/09/30 13:27:51;;;;;;;1.35;0.98;;;;;;;32.55;22.98;99247.03;5095310;28;20035;-84
2021/09/30 13:30:23;;;;;;;1.23;0.80;;;;;;;32.68;21.78;99244.09;5094613;28;20040;-85
2021/09/30 13:32:51;;;;;;;2.42;0.90;;;;;;;32.98;22.00;99240.44;5088171;28;20037;-85
2021/09/30 13:35:18;;;;;;;2.08;1.00;;;;;;;33.19;22.07;99241.66;5092597;28;20395;-84
2021/09/30 13:37:45;;;;;;;1.38;0.80;;;;;;;33.24;21.48;99246.75;5093827;28;20039;-85
2021/09/30 13:40:11;;;;;;;0.77;0.60;;;;;;;33.24;21.87;99243.91;5093597;28;20119;-84
2021/09/30 13:42:40;;;;;;;1.90;0.80;;;;;;;33.37;22.08;99241.75;5094981;28;20036;-86
2021/09/30 13:45:12;;;;;;;1.42;0.82;;;;;;;33.15;21.98;99252.41;5095286;28;20036;-86
2021/09/30 13:47:38;;;;;;;1.20;0.80;;;;;;;33.07;22.68;99246.22;5094871;28;20495;-86
2021/09/30 13:50:09;;;;;;;1.13;0.80;;;;;;;33.20;22.36;99248.97;5094866;28;20487;-86
2021/09/30 13:52:35;;;;;;;1.60;1.08;;;;;;;33.11;21.73;99246.09;5094046;28;20115;-85
2021/09/30 13:55:01;;;;;;;1.67;0.90;;;;;;;33.02;21.99;99249.69;5097245;28;20046;-85
2021/09/30 13:57:29;;;;;;;1.98;1.13;;;;;;;33.15;21.43;99247.53;5109592;28;20060;-86
2021/09/30 13:59:55;;;;;;;1.00;0.70;;;;;;;33.01;21.27;99250.94;5085605;28;20035;-86
2021/09/30 14:02:21;;;;;;;1.65;1.00;;;;;;;33.04;21.73;99246.38;5094027;28;20106;-85
2021/09/30 14:04:47;;;;;;;3.53;1.08;;;;;;;32.55;22.22;99251.94;5103500;28;20024;-84
2021/09/30 14:07:13;;;;;;;1.17;0.82;;;;;;;32.70;21.83;99250.91;5093001;28;20055;-85
2021/09/30 14:09:39;;;;;;;0.98;0.88;;;;;;;32.72;21.96;99247.63;5101847;28;20039;-85
2021/09/30 14:12:07;;;;;;;1.67;1.13;;;;;;;32.82;21.66;99246.38;5109292;28;20042;-86
2021/09/30 14:14:33;;;;;;;5.97;1.13;;;;;;;32.67;22.30;99246.13;5077818;28;20038;-84
2021/09/30 14:16:59;;;;;;;2.22;1.02;;;;;;;32.23;22.74;99241.72;5096179;28;20039;-84
2021/09/30 14:19:26;;;;;;;2.47;0.82;;;;;;;32.00;23.38;99240.13;5093646;28;20062;-85
2021/09/30 14:21:54;;;;;;;2.05;1.00;;;;;;;31.89;23.63;99234.00;5095582;28;20598;-85